createdAt,value
2017-03-05T00:00:27.073Z,991.81
2017-03-05T00:01:36.666Z,991.78
2017-03-05T00:02:46.409Z,991.82
2017-03-05T00:03:57.069Z,991.83
2017-03-05T00:05:06.814Z,991.84
2017-03-05T00:06:16.553Z,991.82
2017-03-05T00:07:25.468Z,991.88
2017-03-05T00:08:35.202Z,991.91
2017-03-05T00:09:44.395Z,991.98
2017-03-05T00:10:54.367Z,992.01
2017-03-05T00:12:04.092Z,991.97
2017-03-05T00:13:13.472Z,991.97
2017-03-05T00:14:22.844Z,991.95
2017-03-05T00:15:32.392Z,991.97
2017-03-05T00:16:42.368Z,991.93
2017-03-05T00:17:52.178Z,991.83
2017-03-05T00:19:01.098Z,991.85
2017-03-05T00:20:10.459Z,991.93
2017-03-05T00:21:20.188Z,991.95
2017-03-05T00:22:30.735Z,991.89
2017-03-05T00:23:40.285Z,991.89
2017-03-05T00:24:49.205Z,991.93
2017-03-05T00:25:58.536Z,991.88
2017-03-05T00:27:08.485Z,991.9
2017-03-05T00:28:17.832Z,991.89
2017-03-05T00:29:26.757Z,991.89
2017-03-05T00:30:36.115Z,991.91
2017-03-05T00:31:45.859Z,992
2017-03-05T00:32:56.356Z,992.08
2017-03-05T00:34:06.566Z,992.14
2017-03-05T00:35:15.918Z,992.24
2017-03-05T00:36:24.841Z,992.34
2017-03-05T00:37:34.220Z,992.33
2017-03-05T00:38:44.490Z,992.32
2017-03-05T00:39:53.454Z,992.36
2017-03-05T00:41:03.211Z,992.35
2017-03-05T00:42:12.959Z,992.43
2017-03-05T00:43:22.413Z,992.53
2017-03-05T00:44:32.343Z,992.62
2017-03-05T00:45:41.674Z,992.66
2017-03-05T00:46:51.827Z,992.73
2017-03-05T00:48:00.744Z,992.78
2017-03-05T00:49:09.656Z,992.79
2017-03-05T00:50:19.034Z,992.76
2017-03-05T00:51:29.215Z,992.84
2017-03-05T00:52:39.022Z,992.89
2017-03-05T00:53:48.348Z,992.91
2017-03-05T00:54:58.084Z,992.96
2017-03-05T00:56:07.807Z,993
2017-03-05T00:57:17.141Z,993.03
2017-03-05T00:58:27.831Z,993.01
2017-03-05T00:59:38.384Z,993.1
2017-03-05T01:00:48.189Z,993.08
2017-03-05T01:01:57.661Z,993.07
2017-03-05T01:03:07.419Z,993.15
2017-03-05T01:04:16.338Z,993.19
2017-03-05T01:05:25.256Z,993.17
2017-03-05T01:06:34.989Z,993.27
2017-03-05T01:07:44.611Z,993.27
2017-03-05T01:08:53.936Z,993.37
2017-03-05T01:10:04.083Z,993.3
2017-03-05T01:11:14.234Z,993.36
2017-03-05T01:12:23.566Z,993.37
2017-03-05T01:13:33.037Z,993.49
2017-03-05T01:14:41.963Z,993.57
2017-03-05T01:15:51.715Z,993.6
2017-03-05T01:17:01.078Z,993.6
2017-03-05T01:18:10.803Z,993.66
2017-03-05T01:19:20.177Z,993.79
2017-03-05T01:20:30.332Z,993.8
2017-03-05T01:21:39.680Z,993.86
2017-03-05T01:22:49.001Z,993.86
2017-03-05T01:23:58.335Z,994.07
2017-03-05T01:25:07.730Z,994.07
2017-03-05T01:26:17.084Z,994.02
2017-03-05T01:27:26.835Z,994.06
2017-03-05T01:28:36.185Z,994.11
2017-03-05T01:29:46.333Z,994.02
2017-03-05T01:30:56.274Z,993.98
2017-03-05T01:32:06.046Z,994
2017-03-05T01:33:15.365Z,994.01
2017-03-05T01:34:25.566Z,994.01
2017-03-05T01:35:34.486Z,993.97
2017-03-05T01:36:44.003Z,994.01
2017-03-05T01:37:52.947Z,994.02
2017-03-05T01:39:02.266Z,994.08
2017-03-05T01:40:11.590Z,994.03
2017-03-05T01:41:20.931Z,994.15
2017-03-05T01:42:29.963Z,994.13
2017-03-05T01:43:39.321Z,994.15
2017-03-05T01:44:48.670Z,994.12
2017-03-05T01:45:57.604Z,994.18
2017-03-05T01:47:07.356Z,994.13
2017-03-05T01:48:17.650Z,994.2
2017-03-05T01:49:26.985Z,994.15
2017-03-05T01:50:36.740Z,994.19
2017-03-05T01:51:46.477Z,994.16
2017-03-05T01:52:56.239Z,994.23
2017-03-05T01:54:05.804Z,994.2
2017-03-05T01:55:14.730Z,994.26
2017-03-05T01:56:24.892Z,994.3
2017-03-05T01:57:34.216Z,994.31
2017-03-05T01:58:44.782Z,994.31
2017-03-05T01:59:55.476Z,994.29
2017-03-05T02:01:05.208Z,994.34
2017-03-05T02:02:14.128Z,994.4
2017-03-05T02:03:23.447Z,994.35
2017-03-05T02:04:32.764Z,994.35
2017-03-05T02:05:42.131Z,994.37
2017-03-05T02:06:51.892Z,994.44
2017-03-05T02:08:01.643Z,994.39
2017-03-05T02:09:10.999Z,994.39
2017-03-05T02:10:19.922Z,994.41
2017-03-05T02:11:29.055Z,994.44
2017-03-05T02:12:40.034Z,994.48
2017-03-05T02:13:49.795Z,994.35
2017-03-05T02:14:59.138Z,994.38
2017-03-05T02:16:09.292Z,994.44
2017-03-05T02:17:18.264Z,994.49
2017-03-05T02:18:27.589Z,994.48
2017-03-05T02:19:36.922Z,994.56
2017-03-05T02:20:46.651Z,994.46
2017-03-05T02:21:55.563Z,994.53
2017-03-05T02:23:05.051Z,994.54
2017-03-05T02:24:13.966Z,994.53
2017-03-05T02:25:22.879Z,994.6
2017-03-05T02:26:32.250Z,994.58
2017-03-05T02:27:42.006Z,994.61
2017-03-05T02:28:50.933Z,994.6
2017-03-05T02:30:00.251Z,994.6
2017-03-05T02:31:10.400Z,994.66
2017-03-05T02:32:20.559Z,994.66
2017-03-05T02:33:29.934Z,994.66
2017-03-05T02:34:39.316Z,994.65
2017-03-05T02:35:48.674Z,994.62
2017-03-05T02:36:58.411Z,994.62
2017-03-05T02:38:07.783Z,994.59
2017-03-05T02:39:17.552Z,994.59
2017-03-05T02:40:26.902Z,994.6
2017-03-05T02:41:36.628Z,994.58
2017-03-05T02:42:47.179Z,994.61
2017-03-05T02:43:56.508Z,994.6
2017-03-05T02:45:06.645Z,994.66
2017-03-05T02:46:16.075Z,994.63
2017-03-05T02:47:25.800Z,994.69
2017-03-05T02:48:35.539Z,994.66
2017-03-05T02:49:44.860Z,994.65
2017-03-05T02:50:54.177Z,994.71
2017-03-05T02:52:04.321Z,994.7
2017-03-05T02:53:14.486Z,994.71
2017-03-05T02:54:24.631Z,994.73
2017-03-05T02:55:33.550Z,994.74
2017-03-05T02:56:42.887Z,994.79
2017-03-05T02:57:52.665Z,994.8
2017-03-05T02:59:02.397Z,994.81
2017-03-05T03:00:11.720Z,994.8
2017-03-05T03:01:21.880Z,994.82
2017-03-05T03:02:32.432Z,994.82
2017-03-05T03:03:42.331Z,994.83
2017-03-05T03:04:52.052Z,994.82
2017-03-05T03:06:01.023Z,994.82
2017-03-05T03:07:09.987Z,994.87
2017-03-05T03:08:19.747Z,994.9
2017-03-05T03:09:29.321Z,994.9
2017-03-05T03:10:39.462Z,995
2017-03-05T03:11:49.613Z,995.02
2017-03-05T03:12:58.943Z,995
2017-03-05T03:14:09.095Z,995.03
2017-03-05T03:15:18.164Z,995.1
2017-03-05T03:16:28.333Z,995.1
2017-03-05T03:17:37.666Z,995.17
2017-03-05T03:18:47.018Z,995.15
2017-03-05T03:19:56.768Z,995.18
2017-03-05T03:21:06.152Z,995.2
2017-03-05T03:22:16.711Z,995.24
2017-03-05T03:23:26.440Z,995.27
2017-03-05T03:24:35.367Z,995.33
2017-03-05T03:25:44.694Z,995.33
2017-03-05T03:26:54.627Z,995.36
2017-03-05T03:28:03.955Z,995.35
2017-03-05T03:29:13.699Z,995.46
2017-03-05T03:30:23.029Z,995.54
2017-03-05T03:31:33.583Z,995.54
2017-03-05T03:32:43.621Z,995.53
2017-03-05T03:33:52.966Z,995.6
2017-03-05T03:35:02.293Z,995.67
2017-03-05T03:36:12.454Z,995.68
2017-03-05T03:37:21.775Z,995.77
2017-03-05T03:38:32.370Z,995.86
2017-03-05T03:39:41.718Z,995.81
2017-03-05T03:40:51.467Z,995.78
2017-03-05T03:42:01.212Z,995.88
2017-03-05T03:43:10.543Z,995.83
2017-03-05T03:44:19.561Z,995.97
2017-03-05T03:45:30.122Z,995.95
2017-03-05T03:46:39.048Z,995.94
2017-03-05T03:47:48.791Z,995.93
2017-03-05T03:48:58.127Z,996.06
2017-03-05T03:50:07.616Z,996.02
2017-03-05T03:51:17.370Z,996.01
2017-03-05T03:52:26.685Z,996.03
2017-03-05T03:53:35.596Z,996.12
2017-03-05T03:54:44.913Z,996.18
2017-03-05T03:55:54.857Z,996.17
2017-03-05T03:57:04.179Z,996.19
2017-03-05T03:58:14.385Z,996.2
2017-03-05T03:59:24.155Z,996.22
2017-03-05T04:00:33.880Z,996.24
2017-03-05T04:01:44.600Z,996.23
2017-03-05T04:02:53.934Z,996.26
2017-03-05T04:04:03.277Z,996.31
2017-03-05T04:05:13.042Z,996.25
2017-03-05T04:06:22.385Z,996.25
2017-03-05T04:07:33.661Z,996.29
2017-03-05T04:08:43.793Z,996.27
2017-03-05T04:09:53.111Z,996.27
2017-03-05T04:11:02.847Z,996.31
2017-03-05T04:12:12.171Z,996.3
2017-03-05T04:13:21.228Z,996.38
2017-03-05T04:14:30.544Z,996.35
2017-03-05T04:15:39.892Z,996.36
2017-03-05T04:16:48.836Z,996.29
2017-03-05T04:17:58.156Z,996.31
2017-03-05T04:19:08.481Z,996.27
2017-03-05T04:20:17.806Z,996.35
2017-03-05T04:21:27.528Z,996.34
2017-03-05T04:22:36.867Z,996.32
2017-03-05T04:23:46.635Z,996.34
2017-03-05T04:24:56.412Z,996.29
2017-03-05T04:26:06.542Z,996.35
2017-03-05T04:27:15.905Z,996.29
2017-03-05T04:28:25.231Z,996.38
2017-03-05T04:29:34.970Z,996.35
2017-03-05T04:30:44.692Z,996.43
2017-03-05T04:31:54.838Z,996.4
2017-03-05T04:33:03.758Z,996.48
2017-03-05T04:34:12.680Z,996.47
2017-03-05T04:35:21.595Z,996.52
2017-03-05T04:36:31.638Z,996.48
2017-03-05T04:37:42.202Z,996.45
2017-03-05T04:38:52.753Z,996.45
2017-03-05T04:40:02.493Z,996.46
2017-03-05T04:41:13.053Z,996.46
2017-03-05T04:42:22.440Z,996.5
2017-03-05T04:43:31.757Z,996.48
2017-03-05T04:44:41.496Z,996.45
2017-03-05T04:45:50.830Z,996.41
2017-03-05T04:47:00.158Z,996.4
2017-03-05T04:48:09.730Z,996.4
2017-03-05T04:49:19.069Z,996.37
2017-03-05T04:50:27.982Z,996.38
2017-03-05T04:51:37.710Z,996.37
2017-03-05T04:52:46.624Z,996.39
2017-03-05T04:53:55.958Z,996.4
2017-03-05T04:55:06.108Z,996.43
2017-03-05T04:56:16.266Z,996.44
2017-03-05T04:57:25.241Z,996.42
2017-03-05T04:58:35.384Z,996.41
2017-03-05T04:59:45.274Z,996.5
2017-03-05T05:00:54.997Z,996.49
2017-03-05T05:02:05.189Z,996.51
2017-03-05T05:03:15.359Z,996.5
2017-03-05T05:04:25.105Z,996.51
2017-03-05T05:05:34.478Z,996.49
2017-03-05T05:06:44.216Z,996.48
2017-03-05T05:07:53.567Z,996.55
2017-03-05T05:09:03.314Z,996.55
2017-03-05T05:10:12.651Z,996.54
2017-03-05T05:11:22.380Z,996.55
2017-03-05T05:12:31.292Z,996.58
2017-03-05T05:13:40.224Z,996.6
2017-03-05T05:14:49.145Z,996.6
2017-03-05T05:15:58.879Z,996.6
2017-03-05T05:17:08.198Z,996.59
2017-03-05T05:18:17.113Z,996.64
2017-03-05T05:19:26.846Z,996.6
2017-03-05T05:20:36.583Z,996.62
2017-03-05T05:21:46.318Z,996.63
2017-03-05T05:22:56.484Z,996.61
2017-03-05T05:24:06.209Z,996.7
2017-03-05T05:25:16.110Z,996.73
2017-03-05T05:26:25.463Z,996.74
2017-03-05T05:27:35.211Z,996.76
2017-03-05T05:28:44.548Z,996.85
2017-03-05T05:29:53.882Z,996.84
2017-03-05T05:31:03.212Z,996.79
2017-03-05T05:32:12.943Z,996.88
2017-03-05T05:33:21.868Z,996.88
2017-03-05T05:34:31.602Z,996.92
2017-03-05T05:35:42.148Z,996.91
2017-03-05T05:36:52.965Z,996.97
2017-03-05T05:38:03.121Z,996.96
2017-03-05T05:39:12.440Z,997.01
2017-03-05T05:40:21.356Z,997.06
2017-03-05T05:41:30.678Z,997.08
2017-03-05T05:42:40.555Z,997.08
2017-03-05T05:43:50.308Z,997.05
2017-03-05T05:44:59.638Z,997.03
2017-03-05T05:46:08.974Z,997.1
2017-03-05T05:47:18.313Z,997.06
2017-03-05T05:48:28.108Z,997.1
2017-03-05T05:49:38.657Z,997.08
2017-03-05T05:50:48.394Z,997.12
2017-03-05T05:51:58.144Z,997.11
2017-03-05T05:53:07.077Z,997.18
2017-03-05T05:54:16.557Z,997.15
2017-03-05T05:55:25.470Z,997.19
2017-03-05T05:56:35.630Z,997.19
2017-03-05T05:57:45.394Z,997.19
2017-03-05T05:58:54.339Z,997.21
2017-03-05T06:00:04.091Z,997.27
2017-03-05T06:01:13.423Z,997.25
2017-03-05T06:02:22.779Z,997.28
2017-03-05T06:03:32.116Z,997.22
2017-03-05T06:04:41.048Z,997.3
2017-03-05T06:05:50.672Z,997.3
2017-03-05T06:06:59.596Z,997.37
2017-03-05T06:08:10.165Z,997.35
2017-03-05T06:09:20.347Z,997.35
2017-03-05T06:10:29.265Z,997.39
2017-03-05T06:11:38.281Z,997.42
2017-03-05T06:12:47.607Z,997.35
2017-03-05T06:13:56.556Z,997.42
2017-03-05T06:15:05.498Z,997.42
2017-03-05T06:16:15.245Z,997.39
2017-03-05T06:17:25.570Z,997.48
2017-03-05T06:18:34.481Z,997.41
2017-03-05T06:19:45.043Z,997.4
2017-03-05T06:20:54.389Z,997.4
2017-03-05T06:22:04.156Z,997.45
2017-03-05T06:23:14.247Z,997.45
2017-03-05T06:24:23.176Z,997.43
2017-03-05T06:25:32.520Z,997.5
2017-03-05T06:26:41.848Z,997.48
2017-03-05T06:27:51.614Z,997.49
2017-03-05T06:29:01.524Z,997.53
2017-03-05T06:30:10.838Z,997.52
2017-03-05T06:31:19.757Z,997.56
2017-03-05T06:32:29.509Z,997.51
2017-03-05T06:33:39.663Z,997.55
2017-03-05T06:34:49.165Z,997.51
2017-03-05T06:35:58.900Z,997.56
2017-03-05T06:37:08.661Z,997.56
2017-03-05T06:38:18.009Z,997.57
2017-03-05T06:39:28.169Z,997.64
2017-03-05T06:40:38.068Z,997.62
2017-03-05T06:41:48.624Z,997.61
2017-03-05T06:42:58.375Z,997.61
2017-03-05T06:44:08.128Z,997.65
2017-03-05T06:45:17.057Z,997.66
2017-03-05T06:46:27.071Z,997.64
2017-03-05T06:47:36.411Z,997.61
2017-03-05T06:48:45.866Z,997.78
2017-03-05T06:49:55.999Z,997.67
2017-03-05T06:51:05.734Z,997.71
2017-03-05T06:52:15.226Z,997.73
2017-03-05T06:53:24.154Z,997.77
2017-03-05T06:54:33.903Z,997.75
2017-03-05T06:55:42.848Z,997.75
2017-03-05T06:56:52.987Z,997.79
2017-03-05T06:58:02.836Z,997.83
2017-03-05T06:59:12.582Z,997.78
2017-03-05T07:00:21.911Z,997.78
2017-03-05T07:01:31.250Z,997.79
2017-03-05T07:02:41.405Z,997.74
2017-03-05T07:03:51.287Z,997.8
2017-03-05T07:05:01.437Z,997.81
2017-03-05T07:06:11.591Z,997.89
2017-03-05T07:07:20.511Z,997.85
2017-03-05T07:08:30.263Z,997.89
2017-03-05T07:09:40.656Z,997.9
2017-03-05T07:10:49.621Z,997.9
2017-03-05T07:11:59.268Z,997.9
2017-03-05T07:13:08.227Z,997.98
2017-03-05T07:14:17.982Z,997.96
2017-03-05T07:15:27.765Z,997.93
2017-03-05T07:16:37.100Z,997.98
2017-03-05T07:17:46.853Z,997.96
2017-03-05T07:18:57.007Z,997.98
2017-03-05T07:20:05.926Z,998
2017-03-05T07:21:16.543Z,998.03
2017-03-05T07:22:27.119Z,998.07
2017-03-05T07:23:36.046Z,998.05
2017-03-05T07:24:45.371Z,998.06
2017-03-05T07:25:55.105Z,998.05
2017-03-05T07:27:05.118Z,998.12
2017-03-05T07:28:16.568Z,998.14
2017-03-05T07:29:25.905Z,998.11
2017-03-05T07:30:36.629Z,998.09
2017-03-05T07:31:45.983Z,998.13
2017-03-05T07:32:55.474Z,998.2
2017-03-05T07:34:04.933Z,998.19
2017-03-05T07:35:14.537Z,998.17
2017-03-05T07:36:23.872Z,998.23
2017-03-05T07:37:33.300Z,998.19
2017-03-05T07:38:42.223Z,998.28
2017-03-05T07:39:51.607Z,998.27
2017-03-05T07:41:00.922Z,998.21
2017-03-05T07:42:10.657Z,998.29
2017-03-05T07:43:20.830Z,998.27
2017-03-05T07:44:30.545Z,998.31
2017-03-05T07:45:40.620Z,998.28
2017-03-05T07:46:50.788Z,998.31
2017-03-05T07:48:01.611Z,998.37
2017-03-05T07:49:11.567Z,998.4
2017-03-05T07:50:21.242Z,998.34
2017-03-05T07:51:30.229Z,998.34
2017-03-05T07:52:39.578Z,998.38
2017-03-05T07:53:48.514Z,998.4
2017-03-05T07:54:59.298Z,998.38
2017-03-05T07:56:09.198Z,998.4
2017-03-05T07:57:19.196Z,998.41
2017-03-05T07:58:29.345Z,998.45
2017-03-05T07:59:39.435Z,998.49
2017-03-05T08:00:49.442Z,998.45
2017-03-05T08:02:00.175Z,998.44
2017-03-05T08:03:10.323Z,998.47
2017-03-05T08:04:20.056Z,998.46
2017-03-05T08:05:29.795Z,998.43
2017-03-05T08:06:39.571Z,998.46
2017-03-05T08:07:48.961Z,998.44
2017-03-05T08:08:58.306Z,998.47
2017-03-05T08:10:07.628Z,998.47
2017-03-05T08:11:16.988Z,998.5
2017-03-05T08:12:26.728Z,998.5
2017-03-05T08:13:36.160Z,998.54
2017-03-05T08:14:45.490Z,998.52
2017-03-05T08:15:54.814Z,998.5
2017-03-05T08:17:04.158Z,998.54
2017-03-05T08:18:13.911Z,998.55
2017-03-05T08:19:23.293Z,998.61
2017-03-05T08:20:32.212Z,998.48
2017-03-05T08:21:41.545Z,998.61
2017-03-05T08:22:51.293Z,998.58
2017-03-05T08:24:00.620Z,998.57
2017-03-05T08:25:09.590Z,998.6
2017-03-05T08:26:18.907Z,998.57
2017-03-05T08:27:28.639Z,998.61
2017-03-05T08:28:38.399Z,998.62
2017-03-05T08:29:48.944Z,998.63
2017-03-05T08:30:59.197Z,998.66
2017-03-05T08:32:08.540Z,998.63
2017-03-05T08:33:17.461Z,998.7
2017-03-05T08:34:26.403Z,998.62
2017-03-05T08:35:35.344Z,998.69
2017-03-05T08:36:44.435Z,998.68
2017-03-05T08:37:54.183Z,998.66
2017-03-05T08:39:03.935Z,998.71
2017-03-05T08:40:13.680Z,998.71
2017-03-05T08:41:23.013Z,998.71
2017-03-05T08:42:33.268Z,998.75
2017-03-05T08:43:43.439Z,998.77
2017-03-05T08:44:52.766Z,998.83
2017-03-05T08:46:02.094Z,998.84
2017-03-05T08:47:12.233Z,998.86
2017-03-05T08:48:21.334Z,998.89
2017-03-05T08:49:30.680Z,998.7
2017-03-05T08:50:40.470Z,998.83
2017-03-05T08:51:50.213Z,998.85
2017-03-05T08:52:59.961Z,998.8
2017-03-05T08:54:09.464Z,999.02
2017-03-05T08:55:18.784Z,998.89
2017-03-05T08:56:28.943Z,998.85
2017-03-05T08:57:38.714Z,998.83
2017-03-05T08:58:48.458Z,998.84
2017-03-05T08:59:57.596Z,998.88
2017-03-05T09:01:06.931Z,998.85
2017-03-05T09:02:16.677Z,998.9
2017-03-05T09:03:26.001Z,998.88
2017-03-05T09:04:34.934Z,998.84
2017-03-05T09:05:44.986Z,998.84
2017-03-05T09:06:55.130Z,998.92
2017-03-05T09:08:05.672Z,998.93
2017-03-05T09:09:15.457Z,998.87
2017-03-05T09:10:24.392Z,998.86
2017-03-05T09:11:34.994Z,998.83
2017-03-05T09:12:44.344Z,998.81
2017-03-05T09:13:54.078Z,998.88
2017-03-05T09:15:03.407Z,998.8
2017-03-05T09:16:12.756Z,998.84
2017-03-05T09:17:23.214Z,998.89
2017-03-05T09:18:33.373Z,998.85
2017-03-05T09:19:43.123Z,998.83
2017-03-05T09:20:52.444Z,998.87
2017-03-05T09:22:02.170Z,998.86
2017-03-05T09:23:12.013Z,998.81
2017-03-05T09:24:21.369Z,998.73
2017-03-05T09:25:31.129Z,998.82
2017-03-05T09:26:41.278Z,998.83
2017-03-05T09:27:50.612Z,998.85
2017-03-05T09:29:00.192Z,998.79
2017-03-05T09:30:09.545Z,998.77
2017-03-05T09:31:19.694Z,998.77
2017-03-05T09:32:28.635Z,998.77
2017-03-05T09:33:37.575Z,998.79
2017-03-05T09:34:47.405Z,998.84
2017-03-05T09:35:56.753Z,998.85
2017-03-05T09:37:06.117Z,998.77
2017-03-05T09:38:15.463Z,998.85
2017-03-05T09:39:24.391Z,998.87
2017-03-05T09:40:34.039Z,998.92
2017-03-05T09:41:43.790Z,998.85
2017-03-05T09:42:53.570Z,998.84
2017-03-05T09:44:02.906Z,998.92
2017-03-05T09:45:12.646Z,998.86
2017-03-05T09:46:22.796Z,998.94
2017-03-05T09:47:32.606Z,998.98
2017-03-05T09:48:42.763Z,999.02
2017-03-05T09:49:52.915Z,999.13
2017-03-05T09:51:01.830Z,998.96
2017-03-05T09:53:51.437Z,998.91
2017-03-05T09:55:02.821Z,998.94
2017-03-05T09:56:12.203Z,998.94
2017-03-05T09:57:22.112Z,998.99
2017-03-05T09:58:31.070Z,998.97
2017-03-05T09:59:41.275Z,999.01
2017-03-05T10:00:51.009Z,999.01
2017-03-05T10:02:00.760Z,999.09
2017-03-05T10:03:10.534Z,999.04
2017-03-05T10:04:20.275Z,998.97
2017-03-05T10:05:30.055Z,998.98
2017-03-05T10:06:39.019Z,999.06
2017-03-05T10:07:47.957Z,999.04
2017-03-05T10:08:57.286Z,999.09
2017-03-05T10:10:07.038Z,999.06
2017-03-05T10:11:16.364Z,999.07
2017-03-05T10:12:25.739Z,999.16
2017-03-05T10:13:35.078Z,999.08
2017-03-05T10:14:45.415Z,999.09
2017-03-05T10:15:54.375Z,999.13
2017-03-05T10:17:03.705Z,999.07
2017-03-05T10:18:13.089Z,999.13
2017-03-05T10:19:22.048Z,999.17
2017-03-05T10:20:32.453Z,999.14
2017-03-05T10:21:42.206Z,999.24
2017-03-05T10:22:52.016Z,999.07
2017-03-05T10:24:01.365Z,999.15
2017-03-05T10:25:11.921Z,999.11
2017-03-05T10:26:21.809Z,999.07
2017-03-05T10:27:31.172Z,999.21
2017-03-05T10:28:40.990Z,999.13
2017-03-05T10:29:49.938Z,999.11
2017-03-05T10:30:59.281Z,999.09
2017-03-05T10:32:08.726Z,999.11
2017-03-05T10:33:17.697Z,999.08
2017-03-05T10:34:27.540Z,999.08
2017-03-05T10:35:37.358Z,999.09
2017-03-05T10:36:46.688Z,999.21
2017-03-05T10:37:57.411Z,999.2
2017-03-05T10:39:07.181Z,999.11
2017-03-05T10:40:16.913Z,999.16
2017-03-05T10:41:26.166Z,999.22
2017-03-05T10:42:35.952Z,999.07
2017-03-05T10:43:45.847Z,999.11
2017-03-05T10:44:54.771Z,999.1
2017-03-05T10:46:04.524Z,999.19
2017-03-05T10:47:13.448Z,999.08
2017-03-05T10:48:22.774Z,999.15
2017-03-05T10:49:32.056Z,999.2
2017-03-05T10:50:41.200Z,999.12
2017-03-05T10:51:51.771Z,999.14
2017-03-05T10:53:01.946Z,999.1
2017-03-05T10:54:11.269Z,999.16
2017-03-05T10:55:20.822Z,999.13
2017-03-05T10:56:30.156Z,999.13
2017-03-05T10:57:39.585Z,999.21
2017-03-05T10:58:48.999Z,999.19
2017-03-05T10:59:58.730Z,999.14
2017-03-05T11:01:08.097Z,999.21
2017-03-05T11:02:17.430Z,999.27
2017-03-05T11:03:26.771Z,999.3
2017-03-05T11:04:37.355Z,999.16
2017-03-05T11:05:46.727Z,999.23
2017-03-05T11:06:56.100Z,999.23
2017-03-05T11:08:05.038Z,999.29
2017-03-05T11:09:14.392Z,999.23
2017-03-05T11:10:24.565Z,999.26
2017-03-05T11:11:34.306Z,999.28
2017-03-05T11:12:44.498Z,999.3
2017-03-05T11:13:53.822Z,999.25
2017-03-05T11:15:04.380Z,999.28
2017-03-05T11:16:13.709Z,999.22
2017-03-05T11:17:23.469Z,999.19
2017-03-05T11:18:33.042Z,999.28
2017-03-05T11:19:42.388Z,999.26
2017-03-05T11:20:51.720Z,999.29
2017-03-05T11:22:01.049Z,999.22
2017-03-05T11:23:10.372Z,999.22
2017-03-05T11:24:19.856Z,999.26
2017-03-05T11:25:29.594Z,999.22
2017-03-05T11:26:38.508Z,999.32
2017-03-05T11:27:47.448Z,999.18
2017-03-05T11:28:56.783Z,999.21
2017-03-05T11:30:06.576Z,999.22
2017-03-05T11:31:15.904Z,999.28
2017-03-05T11:32:25.228Z,999.2
2017-03-05T11:33:34.572Z,999.18
2017-03-05T11:34:43.916Z,999.14
2017-03-05T11:35:54.203Z,999.12
2017-03-05T11:37:03.117Z,999.14
2017-03-05T11:38:13.272Z,999.07
2017-03-05T11:39:23.003Z,999.08
2017-03-05T11:40:32.740Z,999.12
2017-03-05T11:41:41.856Z,999.14
2017-03-05T11:42:51.183Z,999.11
2017-03-05T11:44:00.910Z,999.1
2017-03-05T11:45:10.254Z,999.01
2017-03-05T11:46:19.591Z,999.06
2017-03-05T11:47:29.577Z,999
2017-03-05T11:48:38.904Z,999.03
2017-03-05T11:49:48.258Z,999.13
2017-03-05T11:50:57.599Z,999.09
2017-03-05T11:52:06.923Z,999.05
2017-03-05T11:53:16.423Z,999.1
2017-03-05T11:54:26.585Z,999.11
2017-03-05T11:55:36.337Z,999.05
2017-03-05T11:56:46.067Z,999.1
2017-03-05T11:57:55.798Z,999.09
2017-03-05T11:59:05.293Z,999.05
2017-03-05T12:00:14.634Z,999.08
2017-03-05T12:01:24.362Z,999.03
2017-03-05T12:02:34.117Z,999.12
2017-03-05T12:03:43.883Z,999.09
2017-03-05T12:04:53.311Z,999.05
2017-03-05T12:06:03.067Z,999.09
2017-03-05T12:07:13.216Z,999.15
2017-03-05T12:08:22.560Z,999.09
2017-03-05T12:09:32.304Z,999.04
2017-03-05T12:10:41.751Z,999.12
2017-03-05T12:11:51.491Z,999.07
2017-03-05T12:13:01.632Z,999.15
2017-03-05T12:14:11.360Z,999.18
2017-03-05T12:15:20.693Z,999.04
2017-03-05T12:16:30.251Z,999
2017-03-05T12:17:40.395Z,999.01
2017-03-05T12:18:50.126Z,999.07
2017-03-05T12:19:59.469Z,999.06
2017-03-05T12:21:09.216Z,999.05
2017-03-05T12:22:18.701Z,999.08
2017-03-05T12:23:28.022Z,999.12
2017-03-05T12:24:36.943Z,999.11
2017-03-05T12:25:46.263Z,999.01
2017-03-05T12:26:56.022Z,999.09
2017-03-05T12:28:05.754Z,999.04
2017-03-05T12:29:14.676Z,999.04
2017-03-05T12:30:24.010Z,999.08
2017-03-05T12:31:33.746Z,999.09
2017-03-05T12:32:43.489Z,999.07
2017-03-05T12:33:52.897Z,999.14
2017-03-05T12:35:02.233Z,999.1
2017-03-05T12:36:11.559Z,999.07
2017-03-05T12:37:21.302Z,999.12
2017-03-05T12:38:30.629Z,999.11
2017-03-05T12:39:40.199Z,999.09
2017-03-05T12:40:49.944Z,999.08
2017-03-05T12:41:59.273Z,999.06
2017-03-05T12:43:09.013Z,999.04
2017-03-05T12:44:18.754Z,999.15
2017-03-05T12:45:28.199Z,999.08
2017-03-05T12:46:37.527Z,999.07
2017-03-05T12:47:47.274Z,999.06
2017-03-05T12:48:57.004Z,999.08
2017-03-05T12:50:06.760Z,999.01
2017-03-05T12:51:16.267Z,999.16
2017-03-05T12:52:25.626Z,999.02
2017-03-05T12:53:35.374Z,999.07
2017-03-05T12:54:45.117Z,999.08
2017-03-05T12:55:54.866Z,999.04
2017-03-05T12:57:05.581Z,998.95
2017-03-05T12:58:14.907Z,998.95
2017-03-05T12:59:24.249Z,998.98
2017-03-05T13:00:33.178Z,998.97
2017-03-05T13:01:42.509Z,999.01
2017-03-05T13:02:52.285Z,998.99
2017-03-05T13:04:02.030Z,998.92
2017-03-05T13:05:11.363Z,998.86
2017-03-05T13:06:20.306Z,998.89
2017-03-05T13:07:29.236Z,998.89
2017-03-05T13:08:38.810Z,998.86
2017-03-05T13:09:48.417Z,998.9
2017-03-05T13:10:58.563Z,998.86
2017-03-05T13:12:08.778Z,998.85
2017-03-05T13:13:19.353Z,998.82
2017-03-05T13:14:29.960Z,998.76
2017-03-05T13:15:39.316Z,998.87
2017-03-05T13:16:48.660Z,998.89
2017-03-05T13:17:58.415Z,998.87
2017-03-05T13:19:07.352Z,998.86
2017-03-05T13:20:16.735Z,999
2017-03-05T13:21:26.482Z,998.92
2017-03-05T13:22:35.807Z,998.94
2017-03-05T13:23:44.750Z,998.97
2017-03-05T13:24:54.106Z,998.9
2017-03-05T13:26:03.866Z,998.87
2017-03-05T13:27:13.233Z,998.84
2017-03-05T13:28:23.406Z,998.88
2017-03-05T13:29:32.358Z,998.91
2017-03-05T13:30:42.098Z,998.92
2017-03-05T13:31:51.577Z,998.89
2017-03-05T13:33:01.318Z,998.84
2017-03-05T13:34:11.097Z,998.9
2017-03-05T13:35:20.431Z,998.87
2017-03-05T13:36:30.589Z,998.82
2017-03-05T13:37:40.339Z,998.82
2017-03-05T13:38:49.712Z,998.8
2017-03-05T13:39:59.443Z,998.81
2017-03-05T13:41:09.200Z,998.87
2017-03-05T13:42:18.750Z,998.84
2017-03-05T13:43:27.671Z,998.85
2017-03-05T13:44:37.435Z,998.82
2017-03-05T13:45:46.347Z,998.87
2017-03-05T13:46:56.539Z,998.85
2017-03-05T13:48:06.273Z,998.8
2017-03-05T13:49:16.002Z,998.84
2017-03-05T13:50:25.359Z,998.83
2017-03-05T13:51:34.693Z,998.82
2017-03-05T13:52:44.848Z,998.87
2017-03-05T13:53:53.781Z,998.86
2017-03-05T13:55:03.512Z,998.93
2017-03-05T13:56:13.706Z,998.93
2017-03-05T13:57:23.035Z,998.86
2017-03-05T13:58:32.807Z,998.88
2017-03-05T13:59:42.142Z,998.89
2017-03-05T14:00:51.106Z,998.83
2017-03-05T14:02:01.297Z,998.89
2017-03-05T14:03:10.697Z,998.91
2017-03-05T14:04:20.453Z,998.96
2017-03-05T14:05:29.820Z,998.92
2017-03-05T14:06:38.747Z,998.88
2017-03-05T14:07:48.071Z,998.87
2017-03-05T14:08:58.055Z,998.87
2017-03-05T14:10:07.389Z,998.86
2017-03-05T14:11:16.335Z,998.87
2017-03-05T14:12:25.658Z,998.85
2017-03-05T14:13:36.234Z,998.87
2017-03-05T14:14:46.472Z,998.87
2017-03-05T14:15:56.220Z,998.86
2017-03-05T14:17:05.966Z,998.89
2017-03-05T14:18:15.306Z,998.91
2017-03-05T14:19:24.632Z,998.89
2017-03-05T14:20:33.866Z,998.84
2017-03-05T14:21:43.620Z,998.85
2017-03-05T14:22:53.357Z,998.89
2017-03-05T14:24:03.096Z,998.83
2017-03-05T14:25:12.424Z,998.85
2017-03-05T14:26:21.556Z,998.82
2017-03-05T14:27:31.285Z,998.82
2017-03-05T14:28:40.212Z,998.86
2017-03-05T14:29:49.984Z,998.84
2017-03-05T14:30:59.716Z,998.8
2017-03-05T14:32:10.339Z,998.78
2017-03-05T14:33:20.081Z,998.8